sensor_id;sensor_type;location;lat;lon;timestamp;P1;durP1;ratioP1;P2;durP2;ratioP2
74471;SDS011;62920;53.572;10.050;2022-11-04T00:01:13;6.30;;;2.45;;
74471;SDS011;62920;53.572;10.050;2022-11-04T00:03:39;9.68;;;2.53;;
74471;SDS011;62920;53.572;10.050;2022-11-04T00:06:04;8.63;;;2.53;;
74471;SDS011;62920;53.572;10.050;2022-11-04T00:08:30;8.48;;;2.72;;
74471;SDS011;62920;53.572;10.050;2022-11-04T00:10:56;5.57;;;2.58;;
74471;SDS011;62920;53.572;10.050;2022-11-04T00:13:40;8.75;;;2.65;;
74471;SDS011;62920;53.572;10.050;2022-11-04T00:16:06;9.32;;;2.90;;
74471;SDS011;62920;53.572;10.050;2022-11-04T00:18:51;8.05;;;2.65;;
74471;SDS011;62920;53.572;10.050;2022-11-04T00:21:16;9.85;;;3.20;;
74471;SDS011;62920;53.572;10.050;2022-11-04T00:24:00;8.27;;;2.92;;
74471;SDS011;62920;53.572;10.050;2022-11-04T00:26:44;8.70;;;2.50;;
74471;SDS011;62920;53.572;10.050;2022-11-04T00:29:28;6.13;;;2.80;;
74471;SDS011;62920;53.572;10.050;2022-11-04T00:31:53;6.82;;;3.22;;
74471;SDS011;62920;53.572;10.050;2022-11-04T00:34:37;9.55;;;3.10;;
74471;SDS011;62920;53.572;10.050;2022-11-04T00:37:03;7.13;;;3.45;;
74471;SDS011;62920;53.572;10.050;2022-11-04T00:39:28;7.45;;;2.70;;
74471;SDS011;62920;53.572;10.050;2022-11-04T00:41:54;7.05;;;2.53;;
74471;SDS011;62920;53.572;10.050;2022-11-04T00:44:19;6.97;;;2.47;;
74471;SDS011;62920;53.572;10.050;2022-11-04T00:46:44;7.65;;;2.60;;
74471;SDS011;62920;53.572;10.050;2022-11-04T00:49:10;9.45;;;3.25;;
74471;SDS011;62920;53.572;10.050;2022-11-04T00:51:36;7.53;;;3.05;;
74471;SDS011;62920;53.572;10.050;2022-11-04T00:54:02;6.68;;;2.90;;
74471;SDS011;62920;53.572;10.050;2022-11-04T00:56:27;8.52;;;2.92;;
74471;SDS011;62920;53.572;10.050;2022-11-04T00:58:53;7.93;;;3.33;;
74471;SDS011;62920;53.572;10.050;2022-11-04T01:01:18;9.57;;;3.47;;
74471;SDS011;62920;53.572;10.050;2022-11-04T01:03:44;7.68;;;2.65;;
74471;SDS011;62920;53.572;10.050;2022-11-04T01:06:10;6.93;;;2.85;;
74471;SDS011;62920;53.572;10.050;2022-11-04T01:08:35;8.50;;;3.30;;
74471;SDS011;62920;53.572;10.050;2022-11-04T01:11:02;9.02;;;3.30;;
74471;SDS011;62920;53.572;10.050;2022-11-04T01:13:30;8.07;;;2.72;;
74471;SDS011;62920;53.572;10.050;2022-11-04T01:16:00;7.68;;;3.40;;
74471;SDS011;62920;53.572;10.050;2022-11-04T01:18:26;9.20;;;3.03;;
74471;SDS011;62920;53.572;10.050;2022-11-04T01:20:52;6.90;;;3.00;;
74471;SDS011;62920;53.572;10.050;2022-11-04T01:23:17;9.73;;;2.97;;
74471;SDS011;62920;53.572;10.050;2022-11-04T01:25:43;6.00;;;3.03;;
74471;SDS011;62920;53.572;10.050;2022-11-04T01:28:09;21.98;;;3.40;;
74471;SDS011;62920;53.572;10.050;2022-11-04T01:30:36;8.60;;;2.95;;
74471;SDS011;62920;53.572;10.050;2022-11-04T01:33:02;7.18;;;2.60;;
74471;SDS011;62920;53.572;10.050;2022-11-04T01:35:28;8.55;;;3.13;;
74471;SDS011;62920;53.572;10.050;2022-11-04T01:37:53;8.48;;;2.90;;
74471;SDS011;62920;53.572;10.050;2022-11-04T01:40:19;8.82;;;3.10;;
74471;SDS011;62920;53.572;10.050;2022-11-04T01:42:44;7.93;;;2.88;;
74471;SDS011;62920;53.572;10.050;2022-11-04T01:45:13;9.25;;;3.75;;
74471;SDS011;62920;53.572;10.050;2022-11-04T01:50:29;9.07;;;3.05;;
74471;SDS011;62920;53.572;10.050;2022-11-04T01:53:00;8.05;;;2.85;;
74471;SDS011;62920;53.572;10.050;2022-11-04T01:55:33;8.15;;;3.28;;
74471;SDS011;62920;53.572;10.050;2022-11-04T01:58:01;11.05;;;4.00;;
74471;SDS011;62920;53.572;10.050;2022-11-04T02:00:29;8.60;;;3.13;;
74471;SDS011;62920;53.572;10.050;2022-11-04T02:03:08;8.15;;;3.22;;
74471;SDS011;62920;53.572;10.050;2022-11-04T02:05:36;6.90;;;3.05;;
74471;SDS011;62920;53.572;10.050;2022-11-04T02:08:03;10.02;;;3.15;;
74471;SDS011;62920;53.572;10.050;2022-11-04T02:10:30;6.47;;;2.95;;
74471;SDS011;62920;53.572;10.050;2022-11-04T02:12:57;9.40;;;3.45;;
74471;SDS011;62920;53.572;10.050;2022-11-04T02:15:38;7.55;;;3.25;;
74471;SDS011;62920;53.572;10.050;2022-11-04T02:32:30;6.07;;;3.33;;
74471;SDS011;62920;53.572;10.050;2022-11-04T02:35:03;8.25;;;3.17;;
74471;SDS011;62920;53.572;10.050;2022-11-04T02:45:47;8.85;;;3.28;;
74471;SDS011;62920;53.572;10.050;2022-11-04T02:48:29;6.72;;;3.10;;
74471;SDS011;62920;53.572;10.050;2022-11-04T02:50:58;7.97;;;3.28;;
74471;SDS011;62920;53.572;10.050;2022-11-04T02:53:38;6.53;;;3.15;;
74471;SDS011;62920;53.572;10.050;2022-11-04T02:56:07;6.70;;;3.70;;
74471;SDS011;62920;53.572;10.050;2022-11-04T02:58:35;8.27;;;3.25;;
74471;SDS011;62920;53.572;10.050;2022-11-04T03:01:04;12.00;;;3.50;;
74471;SDS011;62920;53.572;10.050;2022-11-04T03:03:34;6.30;;;2.75;;
74471;SDS011;62920;53.572;10.050;2022-11-04T03:06:04;6.60;;;3.20;;
74471;SDS011;62920;53.572;10.050;2022-11-04T03:08:40;9.63;;;3.25;;
74471;SDS011;62920;53.572;10.050;2022-11-04T03:11:10;5.90;;;3.22;;
74471;SDS011;62920;53.572;10.050;2022-11-04T03:16:12;10.70;;;3.22;;
74471;SDS011;62920;53.572;10.050;2022-11-04T03:21:27;10.13;;;3.55;;
74471;SDS011;62920;53.572;10.050;2022-11-04T03:23:56;8.07;;;3.00;;
74471;SDS011;62920;53.572;10.050;2022-11-04T03:32:16;7.25;;;3.00;;
74471;SDS011;62920;53.572;10.050;2022-11-04T03:34:59;6.38;;;3.00;;
74471;SDS011;62920;53.572;10.050;2022-11-04T03:37:25;8.23;;;2.85;;
74471;SDS011;62920;53.572;10.050;2022-11-04T03:39:50;7.00;;;2.88;;
74471;SDS011;62920;53.572;10.050;2022-11-04T03:42:15;10.10;;;3.45;;
74471;SDS011;62920;53.572;10.050;2022-11-04T03:44:48;6.53;;;3.13;;
74471;SDS011;62920;53.572;10.050;2022-11-04T03:47:15;8.15;;;3.45;;
74471;SDS011;62920;53.572;10.050;2022-11-04T03:52:07;6.93;;;2.97;;
74471;SDS011;62920;53.572;10.050;2022-11-04T03:54:33;6.63;;;3.28;;
74471;SDS011;62920;53.572;10.050;2022-11-04T04:02:26;7.78;;;3.22;;
74471;SDS011;62920;53.572;10.050;2022-11-04T04:05:19;5.32;;;2.72;;
74471;SDS011;62920;53.572;10.050;2022-11-04T04:07:50;5.57;;;2.80;;
74471;SDS011;62920;53.572;10.050;2022-11-04T04:10:30;7.43;;;3.03;;
74471;SDS011;62920;53.572;10.050;2022-11-04T04:16:16;7.25;;;3.15;;
74471;SDS011;62920;53.572;10.050;2022-11-04T04:18:53;7.57;;;3.50;;
74471;SDS011;62920;53.572;10.050;2022-11-04T04:21:21;5.80;;;3.05;;
74471;SDS011;62920;53.572;10.050;2022-11-04T04:23:48;7.72;;;3.13;;
74471;SDS011;62920;53.572;10.050;2022-11-04T04:26:34;7.32;;;3.30;;
74471;SDS011;62920;53.572;10.050;2022-11-04T04:29:20;5.90;;;3.28;;
74471;SDS011;62920;53.572;10.050;2022-11-04T04:31:46;8.02;;;3.13;;
74471;SDS011;62920;53.572;10.050;2022-11-04T04:34:26;6.25;;;3.30;;
74471;SDS011;62920;53.572;10.050;2022-11-04T04:36:55;7.85;;;3.80;;
74471;SDS011;62920;53.572;10.050;2022-11-04T04:39:30;5.93;;;3.28;;
74471;SDS011;62920;53.572;10.050;2022-11-04T04:42:17;5.95;;;3.20;;
74471;SDS011;62920;53.572;10.050;2022-11-04T04:45:02;10.90;;;3.30;;
74471;SDS011;62920;53.572;10.050;2022-11-04T04:47:32;7.30;;;3.33;;
74471;SDS011;62920;53.572;10.050;2022-11-04T04:50:09;10.43;;;3.63;;
74471;SDS011;62920;53.572;10.050;2022-11-04T04:52:37;5.47;;;2.38;;
74471;SDS011;62920;53.572;10.050;2022-11-04T04:55:04;4.40;;;2.28;;
74471;SDS011;62920;53.572;10.050;2022-11-04T04:57:30;6.35;;;2.00;;
74471;SDS011;62920;53.572;10.050;2022-11-04T04:59:55;4.90;;;1.90;;
74471;SDS011;62920;53.572;10.050;2022-11-04T05:02:21;4.25;;;1.90;;
74471;SDS011;62920;53.572;10.050;2022-11-04T05:04:46;5.93;;;1.80;;
74471;SDS011;62920;53.572;10.050;2022-11-04T05:07:12;4.18;;;1.63;;
74471;SDS011;62920;53.572;10.050;2022-11-04T05:09:37;4.97;;;1.80;;
74471;SDS011;62920;53.572;10.050;2022-11-04T05:12:03;3.05;;;1.48;;
74471;SDS011;62920;53.572;10.050;2022-11-04T05:14:28;4.72;;;1.80;;
74471;SDS011;62920;53.572;10.050;2022-11-04T05:16:54;4.13;;;1.25;;
74471;SDS011;62920;53.572;10.050;2022-11-04T05:19:19;3.58;;;1.20;;
74471;SDS011;62920;53.572;10.050;2022-11-04T05:21:45;2.50;;;1.15;;
74471;SDS011;62920;53.572;10.050;2022-11-04T05:24:10;3.22;;;1.42;;
74471;SDS011;62920;53.572;10.050;2022-11-04T05:26:35;3.83;;;1.38;;
74471;SDS011;62920;53.572;10.050;2022-11-04T05:29:01;4.05;;;1.40;;
74471;SDS011;62920;53.572;10.050;2022-11-04T05:31:26;3.08;;;1.33;;
74471;SDS011;62920;53.572;10.050;2022-11-04T05:33:52;3.15;;;1.35;;
74471;SDS011;62920;53.572;10.050;2022-11-04T05:36:17;6.22;;;1.42;;
74471;SDS011;62920;53.572;10.050;2022-11-04T05:38:43;3.08;;;1.30;;
74471;SDS011;62920;53.572;10.050;2022-11-04T05:41:14;5.25;;;1.70;;
74471;SDS011;62920;53.572;10.050;2022-11-04T05:43:50;4.85;;;1.58;;
74471;SDS011;62920;53.572;10.050;2022-11-04T05:46:16;3.30;;;1.20;;
74471;SDS011;62920;53.572;10.050;2022-11-04T05:48:41;3.72;;;1.58;;
74471;SDS011;62920;53.572;10.050;2022-11-04T05:51:06;3.00;;;1.40;;
74471;SDS011;62920;53.572;10.050;2022-11-04T05:53:32;4.28;;;1.60;;
74471;SDS011;62920;53.572;10.050;2022-11-04T05:55:57;4.25;;;1.48;;
74471;SDS011;62920;53.572;10.050;2022-11-04T05:58:22;5.40;;;1.65;;
74471;SDS011;62920;53.572;10.050;2022-11-04T06:00:48;5.28;;;1.88;;
74471;SDS011;62920;53.572;10.050;2022-11-04T06:03:13;4.07;;;1.80;;
74471;SDS011;62920;53.572;10.050;2022-11-04T06:05:38;3.15;;;1.42;;
74471;SDS011;62920;53.572;10.050;2022-11-04T06:08:04;3.50;;;1.63;;
74471;SDS011;62920;53.572;10.050;2022-11-04T06:10:29;4.10;;;1.30;;
74471;SDS011;62920;53.572;10.050;2022-11-04T06:12:54;3.72;;;1.73;;
74471;SDS011;62920;53.572;10.050;2022-11-04T06:15:20;2.90;;;1.30;;
74471;SDS011;62920;53.572;10.050;2022-11-04T06:17:45;3.97;;;1.83;;
74471;SDS011;62920;53.572;10.050;2022-11-04T06:20:10;4.35;;;1.60;;
74471;SDS011;62920;53.572;10.050;2022-11-04T06:22:36;5.03;;;1.83;;
74471;SDS011;62920;53.572;10.050;2022-11-04T06:25:01;4.40;;;1.92;;
74471;SDS011;62920;53.572;10.050;2022-11-04T06:27:27;3.83;;;1.75;;
74471;SDS011;62920;53.572;10.050;2022-11-04T06:29:52;5.07;;;2.08;;
74471;SDS011;62920;53.572;10.050;2022-11-04T06:32:18;5.18;;;1.83;;
74471;SDS011;62920;53.572;10.050;2022-11-04T06:34:44;3.83;;;1.70;;
74471;SDS011;62920;53.572;10.050;2022-11-04T06:37:09;4.05;;;1.92;;
74471;SDS011;62920;53.572;10.050;2022-11-04T06:39:35;4.22;;;2.40;;
74471;SDS011;62920;53.572;10.050;2022-11-04T06:42:01;4.30;;;2.00;;
74471;SDS011;62920;53.572;10.050;2022-11-04T06:44:27;5.60;;;2.00;;
74471;SDS011;62920;53.572;10.050;2022-11-04T06:46:52;4.05;;;1.92;;
74471;SDS011;62920;53.572;10.050;2022-11-04T06:49:18;3.97;;;2.03;;
74471;SDS011;62920;53.572;10.050;2022-11-04T06:51:45;4.80;;;2.33;;
74471;SDS011;62920;53.572;10.050;2022-11-04T06:54:11;4.50;;;2.22;;
74471;SDS011;62920;53.572;10.050;2022-11-04T06:56:37;4.22;;;2.05;;
74471;SDS011;62920;53.572;10.050;2022-11-04T06:59:03;5.35;;;2.90;;
74471;SDS011;62920;53.572;10.050;2022-11-04T07:01:30;4.88;;;2.50;;
74471;SDS011;62920;53.572;10.050;2022-11-04T07:03:58;4.93;;;2.35;;
74471;SDS011;62920;53.572;10.050;2022-11-04T07:06:24;4.47;;;2.72;;
74471;SDS011;62920;53.572;10.050;2022-11-04T07:08:51;5.95;;;2.58;;
74471;SDS011;62920;53.572;10.050;2022-11-04T07:11:20;4.72;;;2.55;;
74471;SDS011;62920;53.572;10.050;2022-11-04T07:13:46;4.35;;;2.55;;
74471;SDS011;62920;53.572;10.050;2022-11-04T07:16:12;5.75;;;2.80;;
74471;SDS011;62920;53.572;10.050;2022-11-04T07:18:38;7.13;;;2.90;;
74471;SDS011;62920;53.572;10.050;2022-11-04T07:21:04;6.43;;;2.53;;
74471;SDS011;62920;53.572;10.050;2022-11-04T07:23:30;6.85;;;2.92;;
74471;SDS011;62920;53.572;10.050;2022-11-04T07:26:02;6.60;;;3.00;;
74471;SDS011;62920;53.572;10.050;2022-11-04T07:28:28;7.60;;;3.40;;
74471;SDS011;62920;53.572;10.050;2022-11-04T07:30:54;4.95;;;3.05;;
74471;SDS011;62920;53.572;10.050;2022-11-04T07:33:23;6.40;;;3.40;;
74471;SDS011;62920;53.572;10.050;2022-11-04T07:35:49;5.82;;;2.97;;
74471;SDS011;62920;53.572;10.050;2022-11-04T07:38:15;8.02;;;2.85;;
74471;SDS011;62920;53.572;10.050;2022-11-04T07:40:40;5.93;;;2.88;;
74471;SDS011;62920;53.572;10.050;2022-11-04T07:43:05;4.43;;;2.60;;
74471;SDS011;62920;53.572;10.050;2022-11-04T07:45:31;5.53;;;3.10;;
74471;SDS011;62920;53.572;10.050;2022-11-04T07:47:57;5.97;;;2.97;;
74471;SDS011;62920;53.572;10.050;2022-11-04T07:50:22;5.57;;;2.95;;
74471;SDS011;62920;53.572;10.050;2022-11-04T07:52:47;5.75;;;2.92;;
74471;SDS011;62920;53.572;10.050;2022-11-04T07:55:14;5.15;;;3.10;;
74471;SDS011;62920;53.572;10.050;2022-11-04T07:57:42;5.68;;;3.03;;
74471;SDS011;62920;53.572;10.050;2022-11-04T08:00:11;4.50;;;2.83;;
74471;SDS011;62920;53.572;10.050;2022-11-04T08:02:38;5.50;;;2.97;;
74471;SDS011;62920;53.572;10.050;2022-11-04T08:05:04;6.13;;;3.33;;
74471;SDS011;62920;53.572;10.050;2022-11-04T08:07:30;5.72;;;3.40;;
74471;SDS011;62920;53.572;10.050;2022-11-04T08:09:56;6.15;;;3.10;;
74471;SDS011;62920;53.572;10.050;2022-11-04T08:12:21;7.90;;;3.40;;
74471;SDS011;62920;53.572;10.050;2022-11-04T08:14:48;8.63;;;3.42;;
74471;SDS011;62920;53.572;10.050;2022-11-04T08:17:14;5.13;;;3.40;;
74471;SDS011;62920;53.572;10.050;2022-11-04T08:19:39;6.05;;;3.33;;
74471;SDS011;62920;53.572;10.050;2022-11-04T08:22:04;5.25;;;3.00;;
74471;SDS011;62920;53.572;10.050;2022-11-04T08:24:30;5.13;;;3.20;;
74471;SDS011;62920;53.572;10.050;2022-11-04T08:26:55;6.03;;;3.13;;
74471;SDS011;62920;53.572;10.050;2022-11-04T08:29:20;4.95;;;2.92;;
74471;SDS011;62920;53.572;10.050;2022-11-04T08:31:46;8.20;;;3.38;;
74471;SDS011;62920;53.572;10.050;2022-11-04T08:34:11;5.95;;;2.97;;
74471;SDS011;62920;53.572;10.050;2022-11-04T08:36:38;5.95;;;3.00;;
74471;SDS011;62920;53.572;10.050;2022-11-04T08:39:05;5.53;;;3.08;;
74471;SDS011;62920;53.572;10.050;2022-11-04T08:41:32;5.85;;;3.05;;
74471;SDS011;62920;53.572;10.050;2022-11-04T08:43:58;4.68;;;2.85;;
74471;SDS011;62920;53.572;10.050;2022-11-04T08:46:25;5.50;;;3.30;;
74471;SDS011;62920;53.572;10.050;2022-11-04T08:51:18;5.57;;;2.85;;
74471;SDS011;62920;53.572;10.050;2022-11-04T08:53:46;5.28;;;3.15;;
74471;SDS011;62920;53.572;10.050;2022-11-04T08:56:22;5.70;;;3.05;;
74471;SDS011;62920;53.572;10.050;2022-11-04T08:58:50;6.93;;;3.13;;
74471;SDS011;62920;53.572;10.050;2022-11-04T09:01:16;4.72;;;3.00;;
74471;SDS011;62920;53.572;10.050;2022-11-04T09:03:42;6.55;;;2.92;;
74471;SDS011;62920;53.572;10.050;2022-11-04T09:06:09;6.25;;;3.28;;
74471;SDS011;62920;53.572;10.050;2022-11-04T09:08:36;7.57;;;3.30;;
74471;SDS011;62920;53.572;10.050;2022-11-04T09:11:05;5.18;;;2.83;;
74471;SDS011;62920;53.572;10.050;2022-11-04T09:13:31;5.55;;;2.83;;
74471;SDS011;62920;53.572;10.050;2022-11-04T09:15:56;4.95;;;2.83;;
74471;SDS011;62920;53.572;10.050;2022-11-04T09:18:22;5.93;;;2.75;;
74471;SDS011;62920;53.572;10.050;2022-11-04T09:20:47;4.55;;;2.90;;
74471;SDS011;62920;53.572;10.050;2022-11-04T09:23:13;8.15;;;2.75;;
74471;SDS011;62920;53.572;10.050;2022-11-04T09:25:39;8.07;;;2.65;;
74471;SDS011;62920;53.572;10.050;2022-11-04T09:28:04;6.80;;;2.58;;
74471;SDS011;62920;53.572;10.050;2022-11-04T09:30:30;6.13;;;3.03;;
74471;SDS011;62920;53.572;10.050;2022-11-04T09:32:55;5.07;;;2.80;;
74471;SDS011;62920;53.572;10.050;2022-11-04T09:35:22;5.38;;;2.47;;
74471;SDS011;62920;53.572;10.050;2022-11-04T09:37:47;7.40;;;3.00;;
74471;SDS011;62920;53.572;10.050;2022-11-04T09:40:14;6.35;;;2.50;;
74471;SDS011;62920;53.572;10.050;2022-11-04T09:45:16;4.93;;;2.25;;
74471;SDS011;62920;53.572;10.050;2022-11-04T09:47:50;4.53;;;2.58;;
74471;SDS011;62920;53.572;10.050;2022-11-04T09:50:24;5.30;;;2.65;;
74471;SDS011;62920;53.572;10.050;2022-11-04T09:53:02;5.25;;;2.67;;
74471;SDS011;62920;53.572;10.050;2022-11-04T09:55:40;3.60;;;2.03;;
74471;SDS011;62920;53.572;10.050;2022-11-04T09:58:12;3.25;;;2.00;;
74471;SDS011;62920;53.572;10.050;2022-11-04T10:00:41;4.20;;;2.42;;
74471;SDS011;62920;53.572;10.050;2022-11-04T10:06:00;4.20;;;2.17;;
74471;SDS011;62920;53.572;10.050;2022-11-04T10:22:37;3.92;;;2.28;;
74471;SDS011;62920;53.572;10.050;2022-11-04T10:25:22;7.72;;;2.33;;
74471;SDS011;62920;53.572;10.050;2022-11-04T10:27:51;6.45;;;2.38;;
74471;SDS011;62920;53.572;10.050;2022-11-04T10:30:17;4.32;;;2.20;;
74471;SDS011;62920;53.572;10.050;2022-11-04T10:35:36;4.43;;;2.10;;
74471;SDS011;62920;53.572;10.050;2022-11-04T10:38:28;5.75;;;2.38;;
74471;SDS011;62920;53.572;10.050;2022-11-04T10:40:53;4.15;;;2.10;;
74471;SDS011;62920;53.572;10.050;2022-11-04T10:43:40;4.18;;;1.92;;
74471;SDS011;62920;53.572;10.050;2022-11-04T10:51:57;4.18;;;2.13;;
74471;SDS011;62920;53.572;10.050;2022-11-04T10:54:24;3.80;;;1.92;;
74471;SDS011;62920;53.572;10.050;2022-11-04T10:56:51;3.75;;;1.90;;
74471;SDS011;62920;53.572;10.050;2022-11-04T10:59:25;3.75;;;1.90;;
74471;SDS011;62920;53.572;10.050;2022-11-04T11:01:54;3.00;;;1.70;;
74471;SDS011;62920;53.572;10.050;2022-11-04T11:04:24;2.88;;;1.63;;
74471;SDS011;62920;53.572;10.050;2022-11-04T11:06:55;4.32;;;1.40;;
74471;SDS011;62920;53.572;10.050;2022-11-04T11:09:23;3.45;;;1.52;;
74471;SDS011;62920;53.572;10.050;2022-11-04T11:11:54;6.03;;;1.60;;
74471;SDS011;62920;53.572;10.050;2022-11-04T11:16:52;4.00;;;1.33;;
74471;SDS011;62920;53.572;10.050;2022-11-04T11:19:19;2.92;;;1.40;;
74471;SDS011;62920;53.572;10.050;2022-11-04T11:21:46;5.25;;;1.38;;
74471;SDS011;62920;53.572;10.050;2022-11-04T11:24:26;3.90;;;1.25;;
74471;SDS011;62920;53.572;10.050;2022-11-04T11:26:55;3.70;;;1.23;;
74471;SDS011;62920;53.572;10.050;2022-11-04T11:29:28;4.95;;;1.27;;
74471;SDS011;62920;53.572;10.050;2022-11-04T11:31:56;3.10;;;1.40;;
74471;SDS011;62920;53.572;10.050;2022-11-04T11:34:24;2.95;;;1.15;;
74471;SDS011;62920;53.572;10.050;2022-11-04T11:36:53;2.63;;;1.27;;
74471;SDS011;62920;53.572;10.050;2022-11-04T11:39:20;3.83;;;1.20;;
74471;SDS011;62920;53.572;10.050;2022-11-04T11:41:57;2.42;;;0.93;;
74471;SDS011;62920;53.572;10.050;2022-11-04T11:44:38;3.92;;;1.10;;
74471;SDS011;62920;53.572;10.050;2022-11-04T11:47:19;3.30;;;1.23;;
74471;SDS011;62920;53.572;10.050;2022-11-04T11:50:05;4.07;;;1.10;;
74471;SDS011;62920;53.572;10.050;2022-11-04T11:52:37;2.38;;;1.00;;
74471;SDS011;62920;53.572;10.050;2022-11-04T12:01:31;2.10;;;0.50;;
74471;SDS011;62920;53.572;10.050;2022-11-04T12:03:54;2.08;;;0.50;;
74471;SDS011;62920;53.572;10.050;2022-11-04T12:06:32;2.28;;;0.50;;
74471;SDS011;62920;53.572;10.050;2022-11-04T12:09:11;2.53;;;0.50;;
74471;SDS011;62920;53.572;10.050;2022-11-04T12:25:21;3.17;;;0.57;;
74471;SDS011;62920;53.572;10.050;2022-11-04T12:30:39;3.55;;;0.50;;
74471;SDS011;62920;53.572;10.050;2022-11-04T12:33:34;2.20;;;0.45;;
74471;SDS011;62920;53.572;10.050;2022-11-04T12:43:53;7.03;;;0.70;;
74471;SDS011;62920;53.572;10.050;2022-11-04T12:46:48;3.67;;;0.57;;
74471;SDS011;62920;53.572;10.050;2022-11-04T12:49:34;6.45;;;0.50;;
74471;SDS011;62920;53.572;10.050;2022-11-04T12:54:53;4.28;;;0.60;;
74471;SDS011;62920;53.572;10.050;2022-11-04T12:57:26;3.28;;;0.55;;
74471;SDS011;62920;53.572;10.050;2022-11-04T13:00:16;2.38;;;0.50;;
74471;SDS011;62920;53.572;10.050;2022-11-04T13:02:48;3.38;;;0.50;;
74471;SDS011;62920;53.572;10.050;2022-11-04T13:05:38;6.95;;;0.88;;
74471;SDS011;62920;53.572;10.050;2022-11-04T13:08:14;6.57;;;0.70;;
74471;SDS011;62920;53.572;10.050;2022-11-04T13:10:49;2.22;;;0.63;;
74471;SDS011;62920;53.572;10.050;2022-11-04T13:13:26;3.33;;;0.45;;
74471;SDS011;62920;53.572;10.050;2022-11-04T13:18:22;6.10;;;0.80;;
74471;SDS011;62920;53.572;10.050;2022-11-04T13:21:03;4.32;;;0.65;;
74471;SDS011;62920;53.572;10.050;2022-11-04T13:23:44;6.10;;;1.05;;
74471;SDS011;62920;53.572;10.050;2022-11-04T13:26:15;3.15;;;0.70;;
74471;SDS011;62920;53.572;10.050;2022-11-04T13:28:42;5.20;;;0.70;;
74471;SDS011;62920;53.572;10.050;2022-11-04T13:36:37;3.45;;;0.50;;
74471;SDS011;62920;53.572;10.050;2022-11-04T13:46:49;6.43;;;0.90;;
74471;SDS011;62920;53.572;10.050;2022-11-04T13:51:42;4.50;;;0.80;;
74471;SDS011;62920;53.572;10.050;2022-11-04T13:54:29;6.55;;;1.10;;
74471;SDS011;62920;53.572;10.050;2022-11-04T13:57:29;2.30;;;0.63;;
74471;SDS011;62920;53.572;10.050;2022-11-04T14:00:05;2.90;;;0.60;;
74471;SDS011;62920;53.572;10.050;2022-11-04T14:18:30;3.72;;;0.63;;
74471;SDS011;62920;53.572;10.050;2022-11-04T14:21:01;3.70;;;0.70;;
74471;SDS011;62920;53.572;10.050;2022-11-04T14:23:27;3.90;;;0.73;;
74471;SDS011;62920;53.572;10.050;2022-11-04T14:26:00;4.68;;;0.57;;
74471;SDS011;62920;53.572;10.050;2022-11-04T14:28:27;4.93;;;1.17;;
74471;SDS011;62920;53.572;10.050;2022-11-04T14:30:58;6.93;;;0.90;;
74471;SDS011;62920;53.572;10.050;2022-11-04T14:38:54;6.40;;;0.93;;
74471;SDS011;62920;53.572;10.050;2022-11-04T14:41:31;4.40;;;0.80;;
74471;SDS011;62920;53.572;10.050;2022-11-04T14:44:28;5.50;;;0.80;;
74471;SDS011;62920;53.572;10.050;2022-11-04T14:52:25;4.30;;;0.77;;
74471;SDS011;62920;53.572;10.050;2022-11-04T14:55:05;6.00;;;1.00;;
74471;SDS011;62920;53.572;10.050;2022-11-04T14:57:41;7.50;;;1.17;;
74471;SDS011;62920;53.572;10.050;2022-11-04T15:03:06;5.28;;;0.88;;
74471;SDS011;62920;53.572;10.050;2022-11-04T15:05:36;3.88;;;1.02;;
74471;SDS011;62920;53.572;10.050;2022-11-04T15:10:50;3.35;;;0.80;;
74471;SDS011;62920;53.572;10.050;2022-11-04T15:13:20;2.55;;;0.80;;
74471;SDS011;62920;53.572;10.050;2022-11-04T15:15:46;3.33;;;0.95;;
74471;SDS011;62920;53.572;10.050;2022-11-04T15:18:15;4.47;;;1.10;;
74471;SDS011;62920;53.572;10.050;2022-11-04T15:20:48;5.45;;;0.90;;
74471;SDS011;62920;53.572;10.050;2022-11-04T15:23:22;3.15;;;0.65;;
74471;SDS011;62920;53.572;10.050;2022-11-04T15:25:51;4.53;;;1.05;;
74471;SDS011;62920;53.572;10.050;2022-11-04T15:28:39;7.53;;;1.20;;
74471;SDS011;62920;53.572;10.050;2022-11-04T15:31:06;5.35;;;1.20;;
74471;SDS011;62920;53.572;10.050;2022-11-04T15:33:41;6.28;;;1.33;;
74471;SDS011;62920;53.572;10.050;2022-11-04T15:36:09;5.10;;;1.00;;
74471;SDS011;62920;53.572;10.050;2022-11-04T15:38:38;5.45;;;1.52;;
74471;SDS011;62920;53.572;10.050;2022-11-04T15:41:05;8.38;;;1.10;;
74471;SDS011;62920;53.572;10.050;2022-11-04T15:43:49;5.10;;;1.23;;
74471;SDS011;62920;53.572;10.050;2022-11-04T15:46:18;3.67;;;0.68;;
74471;SDS011;62920;53.572;10.050;2022-11-04T15:48:58;5.78;;;1.17;;
74471;SDS011;62920;53.572;10.050;2022-11-04T15:51:28;5.88;;;1.05;;
74471;SDS011;62920;53.572;10.050;2022-11-04T15:54:02;4.68;;;0.95;;
74471;SDS011;62920;53.572;10.050;2022-11-04T15:56:31;2.90;;;1.27;;
74471;SDS011;62920;53.572;10.050;2022-11-04T15:58:58;5.78;;;0.77;;
74471;SDS011;62920;53.572;10.050;2022-11-04T16:01:24;3.08;;;1.27;;
74471;SDS011;62920;53.572;10.050;2022-11-04T16:03:56;5.35;;;0.80;;
74471;SDS011;62920;53.572;10.050;2022-11-04T16:06:36;3.33;;;0.80;;
74471;SDS011;62920;53.572;10.050;2022-11-04T16:09:05;6.93;;;1.00;;
74471;SDS011;62920;53.572;10.050;2022-11-04T16:11:41;5.30;;;1.00;;
74471;SDS011;62920;53.572;10.050;2022-11-04T16:14:51;5.65;;;1.20;;
74471;SDS011;62920;53.572;10.050;2022-11-04T16:17:20;4.28;;;0.80;;
74471;SDS011;62920;53.572;10.050;2022-11-04T16:19:50;7.32;;;1.25;;
74471;SDS011;62920;53.572;10.050;2022-11-04T16:22:19;4.85;;;1.00;;
74471;SDS011;62920;53.572;10.050;2022-11-04T16:24:48;5.35;;;1.00;;
74471;SDS011;62920;53.572;10.050;2022-11-04T16:27:16;6.15;;;1.02;;
74471;SDS011;62920;53.572;10.050;2022-11-04T16:29:43;5.55;;;1.10;;
74471;SDS011;62920;53.572;10.050;2022-11-04T16:32:22;4.78;;;1.17;;
74471;SDS011;62920;53.572;10.050;2022-11-04T16:34:59;4.68;;;1.17;;
74471;SDS011;62920;53.572;10.050;2022-11-04T16:37:26;4.32;;;1.08;;
74471;SDS011;62920;53.572;10.050;2022-11-04T16:39:51;4.82;;;1.08;;
74471;SDS011;62920;53.572;10.050;2022-11-04T16:42:17;4.65;;;1.00;;
74471;SDS011;62920;53.572;10.050;2022-11-04T16:44:45;4.68;;;1.15;;
74471;SDS011;62920;53.572;10.050;2022-11-04T16:47:12;8.82;;;1.00;;
74471;SDS011;62920;53.572;10.050;2022-11-04T16:49:38;5.18;;;1.00;;
74471;SDS011;62920;53.572;10.050;2022-11-04T16:52:05;4.07;;;1.02;;
74471;SDS011;62920;53.572;10.050;2022-11-04T16:54:33;6.47;;;1.10;;
74471;SDS011;62920;53.572;10.050;2022-11-04T16:56:59;6.38;;;1.17;;
74471;SDS011;62920;53.572;10.050;2022-11-04T16:59:26;8.00;;;1.20;;
74471;SDS011;62920;53.572;10.050;2022-11-04T17:01:52;7.53;;;1.15;;
74471;SDS011;62920;53.572;10.050;2022-11-04T17:04:17;6.22;;;1.20;;
74471;SDS011;62920;53.572;10.050;2022-11-04T17:06:43;6.78;;;2.00;;
74471;SDS011;62920;53.572;10.050;2022-11-04T17:09:20;3.85;;;1.25;;
74471;SDS011;62920;53.572;10.050;2022-11-04T17:11:47;8.82;;;1.65;;
74471;SDS011;62920;53.572;10.050;2022-11-04T17:14:13;5.93;;;1.60;;
74471;SDS011;62920;53.572;10.050;2022-11-04T17:16:40;6.45;;;1.60;;
74471;SDS011;62920;53.572;10.050;2022-11-04T17:19:07;6.30;;;1.30;;
74471;SDS011;62920;53.572;10.050;2022-11-04T17:21:34;10.77;;;1.60;;
74471;SDS011;62920;53.572;10.050;2022-11-04T17:24:00;4.80;;;1.25;;
74471;SDS011;62920;53.572;10.050;2022-11-04T17:26:25;8.63;;;1.83;;
74471;SDS011;62920;53.572;10.050;2022-11-04T17:28:51;5.88;;;1.50;;
74471;SDS011;62920;53.572;10.050;2022-11-04T17:31:17;5.70;;;1.50;;
74471;SDS011;62920;53.572;10.050;2022-11-04T17:33:43;6.15;;;1.60;;